Colonial Beach, VA (22443)

4:37 PM EST on February 14, 2016 (GMT -0500)
Oak Grove | | Change Station
CLOSE
Current Station
Personal Weather Station
Location: Colonial Beach, VA
Elevation: 10 ft
Nearby Weather Stations
Active Advisory: Winter Weather Advisory

Elev 10 ft 38.20 °N, 77.00 °W | Updated 0 second ago

Clear
Clear
23.1 °F
Feels Like 16 °F
N
6.0
Wind Variable Wind from East
Gusts 10.0 mph

Today
High -- | Low -- °F
--% Chance of Precip.
Yesterday
High -- | Low -- °F
Precip. -- in
Pressure 30.49 in
Visibility 10.0 miles
Clouds Clear
Windchill 16 °F
Dew Point 5 °F
Humidity 46%
Rainfall 0.00 in
Snow Depth Not available.
6:59 AM 5:44 PM
Waxing Crescent, 45% visible
METAR KEZF 142115Z AUTO 14004KT 10SM CLR M03/M18 A3049 RMK AO2 T10331176
Pressure 30.49 in
Visibility 10.0 miles
Clouds Clear
Windchill 16 °F
Dew Point 5 °F
Humidity 46%
Rainfall 0.00 in
Snow Depth Not available.
6:59 AM 5:44 PM
Waxing Crescent, 45% visible
METAR KEZF 142115Z AUTO 14004KT 10SM CLR M03/M18 A3049 RMK AO2 T10331176

10-Day Weather Forecast

Almanac

Astronomy

Feb. 14, 2016 Rise Set
Actual Time
Civil Twilight
Nautical Twilight
Astronomical Twilight
Moon
Length of Visible Light
Length of Day
Tomorrow will be .
, % of the Moon is Illuminated

Today's Extremes

State Highs State Lows

Community

WunderPhotos

Upload Photos

1,892,890 photos uploaded!

WunderBlog® & News

Nearby

Air Quality

  Air Quality AQ Index Pollutant
Not available.

Snow Depth

Station Depth Elevation

Earthquake Activity

City Distance Mag. Time & Date
Minimum magnitude displayed is 2.5.

Coastal Water Temperatures

Place Temperature

Stations

Nearby Weather Stations

Station Location Temp. Windchill Dew Point Humidity Wind Precip. Elev Updated Type
                   

Watches & Warnings

Winter Weather Advisory
Issued: 2:51 PM EST Feb. 14, 2016 – National Weather Service

... Winter Weather Advisory remains in effect from midnight
tonight to 4 PM EST Monday...

* areas affected: Virginia Northern Neck... interior eastern and
interior southeast Virginia.

* Hazards: one to two inches of snow. Less than a tenth of an inch
of ice.

* Temperatures: lows tonight around 20. Highs late Monday in the
mid to upper 30s.

* Timing: snow overspreading the area after midnight tonight... then
continuing through the mid to late morning hours Monday. The
snow is expected to change to sleet and freezing rain late
Monday morning or early afteroon... then eventually rain by late
in the day.

* Impacts: hazardous travel due to snow and ice covered roads.

Precautionary/preparedness actions...

A Winter Weather Advisory means that periods of snow... sleet... or
freezing rain will cause travel difficulties. Be prepared for
slippery roads and limited visibilities... and use caution while
driving.